Justin Paul Eckstein — WDB9186 — position and weather

sailwx.info

Track history (hours):
 
Tides and Currents Weather Stations Pressure Air Temp Water Temp Dewpoint Dewpoint Depression Visibility Wind Speed Wind Dir Waves Ship Positions

Justin Paul Eckstein

More information available from US FCC via Universal Licensing System and Coast Guard Vessel Documentation Center.

Last reported at 2014-Aug-22 07:19 UTC. Time now 2014-Aug-22 15:43 UTC.
Position N 30°24' W 091°13'.

Length 61 m; draft 2.9 m.

Type: Tow > 200 m length. MMSI: 366971510.

Date/timePositionNaut miles runAvg speedWind from/ knotsBaromVisibWave heightAir tempDewpointWater temp
2014-Aug-22 07:19N 30°24' W 091°13'0 0.1
2014-Aug-22 06:32N 30°24' W 091°13'0 0.0
2014-Aug-22 05:32N 30°24' W 091°13'0 0.0
2014-Aug-22 04:33N 30°24' W 091°13'0 0.0
2014-Aug-22 03:33N 30°24' W 091°13'24 1.6
2014-Aug-21 12:24N 30°06' W 090°55'5 5.5
2014-Aug-21 11:31N 30°03' W 090°50'4 4.0
2014-Aug-21 10:31N 29°60' W 090°48'6 6.3
2014-Aug-21 09:33N 30°02' W 090°41'5 5.1
2014-Aug-21 08:33N 30°03' W 090°35'4 4.0
2014-Aug-21 07:33N 30°03' W 090°31'0 0.0
2014-Aug-21 06:33N 30°03' W 090°31'0 0.0
2014-Aug-21 05:33N 30°03' W 090°31'0 0.0
2014-Aug-21 04:34N 30°03' W 090°31'0 0.0
2014-Aug-21 03:34N 30°03' W 090°31'0 0.0
2014-Aug-21 02:33N 30°03' W 090°31'2 2.3
2014-Aug-21 01:33N 30°02' W 090°29'0 0.0
2014-Aug-21 00:33N 30°02' W 090°29'0 0.0
2014-Aug-20 23:33N 30°02' W 090°29'0 0.0
2014-Aug-20 22:33N 30°02' W 090°29'0 0.0
2014-Aug-20 12:34N 30°02' W 090°29'0 0.0
2014-Aug-20 11:34N 30°02' W 090°29'0 0.0
2014-Aug-20 10:34N 30°02' W 090°29'0 0.0
2014-Aug-20 09:33N 30°02' W 090°29'0 0.0
2014-Aug-20 08:34N 30°02' W 090°29'0 0.1
2014-Aug-20 07:33N 30°02' W 090°28'0 0.0
2014-Aug-20 06:33N 30°02' W 090°29'0 0.0
2014-Aug-20 05:33N 30°02' W 090°28'0 0.4
2014-Aug-20 04:33N 30°01' W 090°28'0 0.0
2014-Aug-20 03:33N 30°01' W 090°28'0 0.0
2014-Aug-20 02:33N 30°01' W 090°28'0 0.0
2014-Aug-20 01:33N 30°01' W 090°28'0 0.0
2014-Aug-20 00:33N 30°01' W 090°28'3 2.8
2014-Aug-19 23:33N 29°60' W 090°25'5 4.8
2014-Aug-19 22:34N 29°56' W 090°22'0 0.0
2014-Aug-19 12:30N 29°56' W 090°21'0 0.0
2014-Aug-19 11:24N 29°56' W 090°21'0 0.0
2014-Aug-19 10:33N 29°56' W 090°21'0 0.0
2014-Aug-19 09:33N 29°56' W 090°21'0 0.0
2014-Aug-19 08:33N 29°56' W 090°21'0 0.0
2014-Aug-19 07:33N 29°56' W 090°21'0 0.0
2014-Aug-19 06:33N 29°56' W 090°21'0 0.0
2014-Aug-19 05:34N 29°56' W 090°21'3 2.7
2014-Aug-19 04:33N 29°58' W 090°24'5 5.1
2014-Aug-19 03:33N 30°01' W 090°28'1 0.7
2014-Aug-19 02:33N 30°02' W 090°28'0 0.0
2014-Aug-19 01:33N 30°02' W 090°28'0 0.1
2014-Aug-19 00:33N 30°02' W 090°28'0 0.3
2014-Aug-18 23:33N 30°02' W 090°28'0 0.0
2014-Aug-18 22:33N 30°02' W 090°28'2 2.4
2014-Aug-18 21:33N 30°03' W 090°31'  
Track history (hours):
 
Tides and Currents Weather Stations Pressure Air Temp Water Temp Dewpoint Dewpoint Depression Visibility Wind Speed Wind Dir Waves Ship Positions

Justin Paul Eckstein

More information available from US FCC via Universal Licensing System and Coast Guard Vessel Documentation Center.

Last reported at 2014-Aug-22 07:19 UTC. Time now 2014-Aug-22 15:43 UTC.
Position N 30°24' W 091°13'.

Length 61 m; draft 2.9 m.

Type: Tow > 200 m length. MMSI: 366971510.

Date/timePositionNaut miles runAvg speedWind from/ knotsBaromVisibWave heightAir tempDewpointWater temp
2014-Aug-22 07:19N 30°24' W 091°13'0 0.1
2014-Aug-22 06:32N 30°24' W 091°13'0 0.0
2014-Aug-22 05:32N 30°24' W 091°13'0 0.0
2014-Aug-22 04:33N 30°24' W 091°13'0 0.0
2014-Aug-22 03:33N 30°24' W 091°13'24 1.6
2014-Aug-21 12:24N 30°06' W 090°55'5 5.5
2014-Aug-21 11:31N 30°03' W 090°50'4 4.0
2014-Aug-21 10:31N 29°60' W 090°48'6 6.3
2014-Aug-21 09:33N 30°02' W 090°41'5 5.1
2014-Aug-21 08:33N 30°03' W 090°35'4 4.0
2014-Aug-21 07:33N 30°03' W 090°31'0 0.0
2014-Aug-21 06:33N 30°03' W 090°31'0 0.0
2014-Aug-21 05:33N 30°03' W 090°31'0 0.0
2014-Aug-21 04:34N 30°03' W 090°31'0 0.0
2014-Aug-21 03:34N 30°03' W 090°31'0 0.0
2014-Aug-21 02:33N 30°03' W 090°31'2 2.3
2014-Aug-21 01:33N 30°02' W 090°29'0 0.0
2014-Aug-21 00:33N 30°02' W 090°29'0 0.0
2014-Aug-20 23:33N 30°02' W 090°29'0 0.0
2014-Aug-20 22:33N 30°02' W 090°29'0 0.0
2014-Aug-20 12:34N 30°02' W 090°29'0 0.0
2014-Aug-20 11:34N 30°02' W 090°29'0 0.0
2014-Aug-20 10:34N 30°02' W 090°29'0 0.0
2014-Aug-20 09:33N 30°02' W 090°29'0 0.0
2014-Aug-20 08:34N 30°02' W 090°29'0 0.1
2014-Aug-20 07:33N 30°02' W 090°28'0 0.0
2014-Aug-20 06:33N 30°02' W 090°29'0 0.0
2014-Aug-20 05:33N 30°02' W 090°28'0 0.4
2014-Aug-20 04:33N 30°01' W 090°28'0 0.0
2014-Aug-20 03:33N 30°01' W 090°28'0 0.0
2014-Aug-20 02:33N 30°01' W 090°28'0 0.0
2014-Aug-20 01:33N 30°01' W 090°28'0 0.0
2014-Aug-20 00:33N 30°01' W 090°28'3 2.8
2014-Aug-19 23:33N 29°60' W 090°25'5 4.8
2014-Aug-19 22:34N 29°56' W 090°22'0 0.0
2014-Aug-19 12:30N 29°56' W 090°21'0 0.0
2014-Aug-19 11:24N 29°56' W 090°21'0 0.0
2014-Aug-19 10:33N 29°56' W 090°21'0 0.0
2014-Aug-19 09:33N 29°56' W 090°21'0 0.0
2014-Aug-19 08:33N 29°56' W 090°21'0 0.0
2014-Aug-19 07:33N 29°56' W 090°21'0 0.0
2014-Aug-19 06:33N 29°56' W 090°21'0 0.0
2014-Aug-19 05:34N 29°56' W 090°21'3 2.7
2014-Aug-19 04:33N 29°58' W 090°24'5 5.1
2014-Aug-19 03:33N 30°01' W 090°28'1 0.7
2014-Aug-19 02:33N 30°02' W 090°28'0 0.0
2014-Aug-19 01:33N 30°02' W 090°28'0 0.1
2014-Aug-19 00:33N 30°02' W 090°28'0 0.3
2014-Aug-18 23:33N 30°02' W 090°28'0 0.0
2014-Aug-18 22:33N 30°02' W 090°28'2 2.4
2014-Aug-18 21:33N 30°03' W 090°31'  

Dump ship's entire track history